Sintaluta, Canada
Current Conditions -  °F | °C
As of 3:00 PM on Wednesday 26 Nov 2014 (Local Time) from CYQR Reporting Station
Few Clouds Few Clouds  
Wind Chill: -11°   Ceiling: Unl
Heat Index:   Visibility: 15mi
Dew Point: -6°   Wind: 7mph
Humidity: 72%   Direction: 130°SE
Pressure: 30.39"   Gusts: NA
Location:  50.48°N, 103.43°W
Report Text: CYQR 262100Z 13006KT 15SM FEW075 FEW210 M17/M21 A3039 RMK AC1CI1 AC TR CI TR SLP348
Loading
Personal Weather Stations






























Interactive Weather Map New forecast layout! Learn more

10-Day Weather Forecast

Advertisements
Track Severe Weather on mobile